Delmar, NY (12054)

12:51 AM EDT on July 30, 2016 (GMT -0400)
Kenholm | | Change Station

Elev 213 ft 42.62 °N, 73.81 °W | Updated 201 days ago

°F
Feels Like °F
N
Wind Variable Wind from
Gusts mph

Today
High -- | Low -- °F
--% Chance of Precip.
Yesterday
High -- | Low -- °F
Precip. -- in
Pressure 29.96 in
Visibility 10.0 miles
Clouds Scattered Clouds 7000 ft
Windchill °F
Dew Point Not available.
Humidity Not available.
Rainfall in
Snow Depth Not available.
5:45 AM 8:17 PM
Waning Crescent, 16% visible
METAR KALB 300351Z 01006KT 10SM SCT070 22/14 A2997 RMK AO2 SLP146 T02220139
Pressure 29.96 in
Visibility 10.0 miles
Clouds Scattered Clouds 7000 ft
Windchill °F
Dew Point Not available.
Humidity Not available.
Rainfall in
Snow Depth Not available.
5:45 AM 8:17 PM
Waning Crescent, 16% visible
METAR KALB 300351Z 01006KT 10SM SCT070 22/14 A2997 RMK AO2 SLP146 T02220139

10-Day Weather Forecast

Almanac

Astronomy

Jul. 30, 2016 Rise Set
Actual Time
Civil Twilight
Nautical Twilight
Astronomical Twilight
Moon
Length of Visible Light
Length of Day
Tomorrow will be .
, % of the Moon is Illuminated

Today's Extremes

State Highs State Lows

Community

WunderPhotos

Upload Photos

1,928,506 photos uploaded!

WunderBlog® & News

Nearby

Air Quality

  Air Quality AQ Index Pollutant
Not available.

Snow Depth

Station Depth Elevation

Earthquake Activity

City Distance Mag. Time & Date
Minimum magnitude displayed is 2.5.

Coastal Water Temperatures

Place Temperature

Stations

Nearby Weather Stations

Station Location Temp. Windchill Dew Point Humidity Wind Precip. Elev Updated Type
                   

Watches & Warnings

There are currently no watches in effect.